sensor_id;sensor_type;location;lat;lon;timestamp;temperature;humidity
63537;DHT22;49686;51.880;5.632;2023-05-20T00:00:55;10.10;99.90
63537;DHT22;49686;51.880;5.632;2023-05-20T00:03:23;10.10;99.90
63537;DHT22;49686;51.880;5.632;2023-05-20T00:05:50;10.10;99.90
63537;DHT22;49686;51.880;5.632;2023-05-20T00:08:17;10.10;99.90
63537;DHT22;49686;51.880;5.632;2023-05-20T00:10:44;10.00;99.90
63537;DHT22;49686;51.880;5.632;2023-05-20T00:13:11;10.00;99.90
63537;DHT22;49686;51.880;5.632;2023-05-20T00:15:38;10.00;99.90
63537;DHT22;49686;51.880;5.632;2023-05-20T00:18:06;9.90;99.90
63537;DHT22;49686;51.880;5.632;2023-05-20T00:20:34;9.90;99.90
63537;DHT22;49686;51.880;5.632;2023-05-20T00:23:01;9.90;99.90
63537;DHT22;49686;51.880;5.632;2023-05-20T00:25:31;9.80;99.90
63537;DHT22;49686;51.880;5.632;2023-05-20T00:27:58;9.80;99.90
63537;DHT22;49686;51.880;5.632;2023-05-20T00:30:28;9.70;99.90
63537;DHT22;49686;51.880;5.632;2023-05-20T00:32:58;9.70;99.90
63537;DHT22;49686;51.880;5.632;2023-05-20T00:35:31;9.70;99.90
63537;DHT22;49686;51.880;5.632;2023-05-20T00:38:01;9.60;99.90
63537;DHT22;49686;51.880;5.632;2023-05-20T00:40:28;9.60;99.90
63537;DHT22;49686;51.880;5.632;2023-05-20T00:42:55;9.50;99.90
63537;DHT22;49686;51.880;5.632;2023-05-20T00:45:21;9.50;99.90
63537;DHT22;49686;51.880;5.632;2023-05-20T00:47:51;9.50;99.90
63537;DHT22;49686;51.880;5.632;2023-05-20T00:50:20;9.50;99.90
63537;DHT22;49686;51.880;5.632;2023-05-20T00:52:47;9.50;99.90
63537;DHT22;49686;51.880;5.632;2023-05-20T00:55:18;9.50;99.90
63537;DHT22;49686;51.880;5.632;2023-05-20T00:57:51;9.50;99.90
63537;DHT22;49686;51.880;5.632;2023-05-20T01:00:18;9.50;99.90
63537;DHT22;49686;51.880;5.632;2023-05-20T01:02:46;9.50;99.90
63537;DHT22;49686;51.880;5.632;2023-05-20T01:05:13;9.40;99.90
63537;DHT22;49686;51.880;5.632;2023-05-20T01:07:42;9.50;99.90
63537;DHT22;49686;51.880;5.632;2023-05-20T01:10:09;9.50;99.90
63537;DHT22;49686;51.880;5.632;2023-05-20T01:12:41;9.50;99.90
63537;DHT22;49686;51.880;5.632;2023-05-20T01:15:10;9.50;99.90
63537;DHT22;49686;51.880;5.632;2023-05-20T01:17:42;9.50;99.90
63537;DHT22;49686;51.880;5.632;2023-05-20T01:20:10;9.50;99.90
63537;DHT22;49686;51.880;5.632;2023-05-20T01:22:39;9.50;99.90
63537;DHT22;49686;51.880;5.632;2023-05-20T01:25:15;9.50;99.90
63537;DHT22;49686;51.880;5.632;2023-05-20T01:27:42;9.40;99.90
63537;DHT22;49686;51.880;5.632;2023-05-20T01:30:12;9.40;99.90
63537;DHT22;49686;51.880;5.632;2023-05-20T01:32:46;9.40;99.90
63537;DHT22;49686;51.880;5.632;2023-05-20T01:35:14;9.40;99.90
63537;DHT22;49686;51.880;5.632;2023-05-20T01:37:45;9.40;99.90
63537;DHT22;49686;51.880;5.632;2023-05-20T01:40:15;9.40;99.90
63537;DHT22;49686;51.880;5.632;2023-05-20T01:42:43;9.30;99.90
63537;DHT22;49686;51.880;5.632;2023-05-20T01:45:11;9.30;99.90
63537;DHT22;49686;51.880;5.632;2023-05-20T01:47:38;9.30;99.90
63537;DHT22;49686;51.880;5.632;2023-05-20T01:50:08;9.30;99.90
63537;DHT22;49686;51.880;5.632;2023-05-20T01:52:40;9.30;99.90
63537;DHT22;49686;51.880;5.632;2023-05-20T01:55:09;9.30;99.90
63537;DHT22;49686;51.880;5.632;2023-05-20T01:57:36;9.30;99.90
63537;DHT22;49686;51.880;5.632;2023-05-20T02:00:03;9.30;99.90
63537;DHT22;49686;51.880;5.632;2023-05-20T02:02:30;9.30;99.90
63537;DHT22;49686;51.880;5.632;2023-05-20T02:05:08;9.30;99.90
63537;DHT22;49686;51.880;5.632;2023-05-20T02:07:35;9.20;99.90
63537;DHT22;49686;51.880;5.632;2023-05-20T02:10:02;9.20;99.90
63537;DHT22;49686;51.880;5.632;2023-05-20T02:12:30;9.20;99.90
63537;DHT22;49686;51.880;5.632;2023-05-20T02:14:59;9.20;99.90
63537;DHT22;49686;51.880;5.632;2023-05-20T02:17:25;9.20;99.90
63537;DHT22;49686;51.880;5.632;2023-05-20T02:19:52;9.20;99.90
63537;DHT22;49686;51.880;5.632;2023-05-20T02:22:19;9.20;99.90
63537;DHT22;49686;51.880;5.632;2023-05-20T02:24:46;9.20;99.90
63537;DHT22;49686;51.880;5.632;2023-05-20T02:27:13;9.30;99.90
63537;DHT22;49686;51.880;5.632;2023-05-20T02:29:44;9.30;99.90
63537;DHT22;49686;51.880;5.632;2023-05-20T02:32:11;9.30;99.90
63537;DHT22;49686;51.880;5.632;2023-05-20T02:34:38;9.30;99.90
63537;DHT22;49686;51.880;5.632;2023-05-20T02:37:05;9.30;99.90
63537;DHT22;49686;51.880;5.632;2023-05-20T02:39:32;9.30;99.90
63537;DHT22;49686;51.880;5.632;2023-05-20T02:41:58;9.30;99.90
63537;DHT22;49686;51.880;5.632;2023-05-20T02:44:45;9.30;99.90
63537;DHT22;49686;51.880;5.632;2023-05-20T02:47:13;9.30;99.90
63537;DHT22;49686;51.880;5.632;2023-05-20T02:49:39;9.20;99.90
63537;DHT22;49686;51.880;5.632;2023-05-20T02:52:09;9.20;99.90
63537;DHT22;49686;51.880;5.632;2023-05-20T02:54:36;9.20;99.90
63537;DHT22;49686;51.880;5.632;2023-05-20T02:57:05;9.10;99.90
63537;DHT22;49686;51.880;5.632;2023-05-20T02:59:35;9.10;99.90
63537;DHT22;49686;51.880;5.632;2023-05-20T03:02:03;9.10;99.90
63537;DHT22;49686;51.880;5.632;2023-05-20T03:04:30;9.10;99.90
63537;DHT22;49686;51.880;5.632;2023-05-20T03:06:59;9.10;99.90
63537;DHT22;49686;51.880;5.632;2023-05-20T03:09:29;9.00;99.90
63537;DHT22;49686;51.880;5.632;2023-05-20T03:11:57;9.00;99.90
63537;DHT22;49686;51.880;5.632;2023-05-20T03:14:24;8.90;99.90
63537;DHT22;49686;51.880;5.632;2023-05-20T03:16:51;8.90;99.90
63537;DHT22;49686;51.880;5.632;2023-05-20T03:19:22;8.80;99.90
63537;DHT22;49686;51.880;5.632;2023-05-20T03:21:49;8.70;99.90
63537;DHT22;49686;51.880;5.632;2023-05-20T03:24:16;8.70;99.90
63537;DHT22;49686;51.880;5.632;2023-05-20T03:26:48;8.70;99.90
63537;DHT22;49686;51.880;5.632;2023-05-20T03:29:16;8.70;99.90
63537;DHT22;49686;51.880;5.632;2023-05-20T03:31:53;8.60;99.90
63537;DHT22;49686;51.880;5.632;2023-05-20T03:34:24;8.60;99.90
63537;DHT22;49686;51.880;5.632;2023-05-20T03:36:54;8.60;99.90
63537;DHT22;49686;51.880;5.632;2023-05-20T03:39:20;8.60;99.90
63537;DHT22;49686;51.880;5.632;2023-05-20T03:41:50;8.60;99.90
63537;DHT22;49686;51.880;5.632;2023-05-20T03:44:17;8.60;99.90
63537;DHT22;49686;51.880;5.632;2023-05-20T03:46:46;8.60;99.90
63537;DHT22;49686;51.880;5.632;2023-05-20T03:49:13;8.60;99.90
63537;DHT22;49686;51.880;5.632;2023-05-20T03:51:41;8.60;99.90
63537;DHT22;49686;51.880;5.632;2023-05-20T03:54:11;8.60;99.90
63537;DHT22;49686;51.880;5.632;2023-05-20T03:56:37;8.60;99.90
63537;DHT22;49686;51.880;5.632;2023-05-20T03:59:04;8.60;99.90
63537;DHT22;49686;51.880;5.632;2023-05-20T04:01:34;8.60;99.90
63537;DHT22;49686;51.880;5.632;2023-05-20T04:04:01;8.60;99.90
63537;DHT22;49686;51.880;5.632;2023-05-20T04:06:28;8.60;99.90
63537;DHT22;49686;51.880;5.632;2023-05-20T04:08:56;8.60;99.90
63537;DHT22;49686;51.880;5.632;2023-05-20T04:11:23;8.70;99.90
63537;DHT22;49686;51.880;5.632;2023-05-20T04:13:50;8.70;99.90
63537;DHT22;49686;51.880;5.632;2023-05-20T04:16:16;8.70;99.90
63537;DHT22;49686;51.880;5.632;2023-05-20T04:18:43;8.60;99.90
63537;DHT22;49686;51.880;5.632;2023-05-20T04:21:10;8.70;99.90
63537;DHT22;49686;51.880;5.632;2023-05-20T04:23:38;8.70;99.90
63537;DHT22;49686;51.880;5.632;2023-05-20T04:26:09;8.70;99.90
63537;DHT22;49686;51.880;5.632;2023-05-20T04:28:36;8.70;99.90
63537;DHT22;49686;51.880;5.632;2023-05-20T04:31:05;8.70;99.90
63537;DHT22;49686;51.880;5.632;2023-05-20T04:33:32;8.90;99.90
63537;DHT22;49686;51.880;5.632;2023-05-20T04:35:59;9.40;99.90
63537;DHT22;49686;51.880;5.632;2023-05-20T04:38:25;10.30;99.90
63537;DHT22;49686;51.880;5.632;2023-05-20T04:40:55;11.00;99.90
63537;DHT22;49686;51.880;5.632;2023-05-20T04:43:23;11.60;99.90
63537;DHT22;49686;51.880;5.632;2023-05-20T04:45:50;12.10;99.90
63537;DHT22;49686;51.880;5.632;2023-05-20T04:48:20;12.60;99.90
63537;DHT22;49686;51.880;5.632;2023-05-20T04:50:49;12.80;99.90
63537;DHT22;49686;51.880;5.632;2023-05-20T04:53:19;12.90;99.90
63537;DHT22;49686;51.880;5.632;2023-05-20T04:55:46;13.30;99.90
63537;DHT22;49686;51.880;5.632;2023-05-20T04:58:15;13.40;99.90
63537;DHT22;49686;51.880;5.632;2023-05-20T05:00:43;13.90;99.90
63537;DHT22;49686;51.880;5.632;2023-05-20T05:03:10;14.00;99.90
63537;DHT22;49686;51.880;5.632;2023-05-20T05:05:42;13.80;99.90
63537;DHT22;49686;51.880;5.632;2023-05-20T05:08:10;13.90;99.90
63537;DHT22;49686;51.880;5.632;2023-05-20T05:10:38;14.10;99.90
63537;DHT22;49686;51.880;5.632;2023-05-20T05:13:05;14.60;99.90
63537;DHT22;49686;51.880;5.632;2023-05-20T05:15:31;15.00;99.90
63537;DHT22;49686;51.880;5.632;2023-05-20T05:18:03;14.80;99.90
63537;DHT22;49686;51.880;5.632;2023-05-20T05:20:31;14.60;99.90
63537;DHT22;49686;51.880;5.632;2023-05-20T05:22:58;14.40;99.90
63537;DHT22;49686;51.880;5.632;2023-05-20T05:25:25;14.60;99.90
63537;DHT22;49686;51.880;5.632;2023-05-20T05:27:52;14.80;99.90
63537;DHT22;49686;51.880;5.632;2023-05-20T05:30:19;15.10;99.90
63537;DHT22;49686;51.880;5.632;2023-05-20T05:32:45;15.50;99.90
63537;DHT22;49686;51.880;5.632;2023-05-20T05:35:19;15.80;99.90
63537;DHT22;49686;51.880;5.632;2023-05-20T05:37:46;15.60;99.90
63537;DHT22;49686;51.880;5.632;2023-05-20T05:40:15;15.60;99.90
63537;DHT22;49686;51.880;5.632;2023-05-20T05:42:42;16.10;99.90
63537;DHT22;49686;51.880;5.632;2023-05-20T05:45:09;16.00;99.90
63537;DHT22;49686;51.880;5.632;2023-05-20T05:47:37;16.00;99.90
63537;DHT22;49686;51.880;5.632;2023-05-20T05:50:06;16.20;99.90
63537;DHT22;49686;51.880;5.632;2023-05-20T05:52:34;15.30;99.90
63537;DHT22;49686;51.880;5.632;2023-05-20T05:55:01;15.30;99.90
63537;DHT22;49686;51.880;5.632;2023-05-20T05:57:29;15.50;99.90
63537;DHT22;49686;51.880;5.632;2023-05-20T05:59:59;15.50;99.90
63537;DHT22;49686;51.880;5.632;2023-05-20T06:02:26;15.30;99.90
63537;DHT22;49686;51.880;5.632;2023-05-20T06:04:58;15.70;99.90
63537;DHT22;49686;51.880;5.632;2023-05-20T06:07:25;15.40;99.90
63537;DHT22;49686;51.880;5.632;2023-05-20T06:09:53;15.40;99.90
63537;DHT22;49686;51.880;5.632;2023-05-20T06:12:22;15.40;99.90
63537;DHT22;49686;51.880;5.632;2023-05-20T06:14:50;15.30;99.90
63537;DHT22;49686;51.880;5.632;2023-05-20T06:17:20;16.00;99.90
63537;DHT22;49686;51.880;5.632;2023-05-20T06:19:47;16.80;99.90
63537;DHT22;49686;51.880;5.632;2023-05-20T06:22:19;16.50;99.90
63537;DHT22;49686;51.880;5.632;2023-05-20T06:24:50;16.90;99.90
63537;DHT22;49686;51.880;5.632;2023-05-20T06:27:18;16.70;99.90
63537;DHT22;49686;51.880;5.632;2023-05-20T06:29:46;16.80;99.90
63537;DHT22;49686;51.880;5.632;2023-05-20T06:32:13;17.70;99.90
63537;DHT22;49686;51.880;5.632;2023-05-20T06:34:42;17.40;99.90
63537;DHT22;49686;51.880;5.632;2023-05-20T06:37:08;17.70;99.90
63537;DHT22;49686;51.880;5.632;2023-05-20T06:39:35;18.30;99.90
63537;DHT22;49686;51.880;5.632;2023-05-20T06:42:03;18.90;99.90
63537;DHT22;49686;51.880;5.632;2023-05-20T06:44:45;19.10;97.90
63537;DHT22;49686;51.880;5.632;2023-05-20T06:47:13;18.60;97.80
63537;DHT22;49686;51.880;5.632;2023-05-20T06:49:42;18.00;97.90
63537;DHT22;49686;51.880;5.632;2023-05-20T06:52:12;17.90;98.10
63537;DHT22;49686;51.880;5.632;2023-05-20T06:54:39;17.60;98.20
63537;DHT22;49686;51.880;5.632;2023-05-20T06:57:07;17.50;98.90
63537;DHT22;49686;51.880;5.632;2023-05-20T06:59:34;17.50;98.50
63537;DHT22;49686;51.880;5.632;2023-05-20T07:02:19;17.30;98.50
63537;DHT22;49686;51.880;5.632;2023-05-20T07:04:46;17.70;98.60
63537;DHT22;49686;51.880;5.632;2023-05-20T07:07:13;18.20;97.90
63537;DHT22;49686;51.880;5.632;2023-05-20T07:09:43;18.00;97.60
63537;DHT22;49686;51.880;5.632;2023-05-20T07:12:12;17.90;97.90
63537;DHT22;49686;51.880;5.632;2023-05-20T07:14:41;18.40;97.10
63537;DHT22;49686;51.880;5.632;2023-05-20T07:17:08;18.10;96.60
63537;DHT22;49686;51.880;5.632;2023-05-20T07:19:36;17.70;97.20
63537;DHT22;49686;51.880;5.632;2023-05-20T07:22:06;18.00;97.30
63537;DHT22;49686;51.880;5.632;2023-05-20T07:24:32;18.30;97.10
63537;DHT22;49686;51.880;5.632;2023-05-20T07:27:00;18.30;96.20
63537;DHT22;49686;51.880;5.632;2023-05-20T07:29:32;17.90;96.40
63537;DHT22;49686;51.880;5.632;2023-05-20T07:32:05;18.00;96.20
63537;DHT22;49686;51.880;5.632;2023-05-20T07:34:32;17.40;96.30
63537;DHT22;49686;51.880;5.632;2023-05-20T07:37:01;17.20;97.30
63537;DHT22;49686;51.880;5.632;2023-05-20T07:39:31;17.40;97.40
63537;DHT22;49686;51.880;5.632;2023-05-20T07:42:00;17.70;96.40
63537;DHT22;49686;51.880;5.632;2023-05-20T07:44:27;17.10;97.50
63537;DHT22;49686;51.880;5.632;2023-05-20T07:46:57;17.40;97.20
63537;DHT22;49686;51.880;5.632;2023-05-20T07:49:26;17.70;97.00
63537;DHT22;49686;51.880;5.632;2023-05-20T07:51:53;17.80;97.10
63537;DHT22;49686;51.880;5.632;2023-05-20T07:54:22;17.40;95.70
63537;DHT22;49686;51.880;5.632;2023-05-20T07:56:52;17.30;96.60
63537;DHT22;49686;51.880;5.632;2023-05-20T07:59:23;17.30;96.40
63537;DHT22;49686;51.880;5.632;2023-05-20T08:01:50;17.70;95.80
63537;DHT22;49686;51.880;5.632;2023-05-20T08:04:17;17.70;96.30
63537;DHT22;49686;51.880;5.632;2023-05-20T08:06:44;18.10;96.00
63537;DHT22;49686;51.880;5.632;2023-05-20T08:09:11;18.10;95.50
63537;DHT22;49686;51.880;5.632;2023-05-20T08:11:39;18.10;95.20
63537;DHT22;49686;51.880;5.632;2023-05-20T08:14:12;17.60;95.60
63537;DHT22;49686;51.880;5.632;2023-05-20T08:16:48;17.40;95.90
63537;DHT22;49686;51.880;5.632;2023-05-20T08:19:19;17.70;95.30
63537;DHT22;49686;51.880;5.632;2023-05-20T08:21:46;17.80;94.70
63537;DHT22;49686;51.880;5.632;2023-05-20T08:24:15;17.40;95.20
63537;DHT22;49686;51.880;5.632;2023-05-20T08:26:44;17.30;95.10
63537;DHT22;49686;51.880;5.632;2023-05-20T08:29:15;17.50;94.60
63537;DHT22;49686;51.880;5.632;2023-05-20T08:31:42;17.60;94.10
63537;DHT22;49686;51.880;5.632;2023-05-20T08:34:12;17.30;93.90
63537;DHT22;49686;51.880;5.632;2023-05-20T08:36:39;17.20;94.60
63537;DHT22;49686;51.880;5.632;2023-05-20T08:39:07;17.10;94.50
63537;DHT22;49686;51.880;5.632;2023-05-20T08:41:34;17.10;94.40
63537;DHT22;49686;51.880;5.632;2023-05-20T08:44:02;16.70;94.70
63537;DHT22;49686;51.880;5.632;2023-05-20T08:46:31;16.80;94.70
63537;DHT22;49686;51.880;5.632;2023-05-20T08:48:59;17.00;94.40
63537;DHT22;49686;51.880;5.632;2023-05-20T08:51:28;16.80;94.50
63537;DHT22;49686;51.880;5.632;2023-05-20T08:53:58;16.40;94.30
63537;DHT22;49686;51.880;5.632;2023-05-20T08:56:25;16.30;94.50
63537;DHT22;49686;51.880;5.632;2023-05-20T08:58:56;16.60;94.90
63537;DHT22;49686;51.880;5.632;2023-05-20T09:01:26;16.80;94.40
63537;DHT22;49686;51.880;5.632;2023-05-20T09:03:53;17.00;94.50
63537;DHT22;49686;51.880;5.632;2023-05-20T09:06:19;17.30;94.20
63537;DHT22;49686;51.880;5.632;2023-05-20T09:08:48;17.00;93.90
63537;DHT22;49686;51.880;5.632;2023-05-20T09:11:18;16.60;94.30
63537;DHT22;49686;51.880;5.632;2023-05-20T09:13:45;16.90;94.70
63537;DHT22;49686;51.880;5.632;2023-05-20T09:16:12;17.10;94.20
63537;DHT22;49686;51.880;5.632;2023-05-20T09:19:00;17.20;93.70
63537;DHT22;49686;51.880;5.632;2023-05-20T09:21:28;17.20;93.30
63537;DHT22;49686;51.880;5.632;2023-05-20T09:23:55;17.10;93.50
63537;DHT22;49686;51.880;5.632;2023-05-20T09:26:22;17.20;94.00
63537;DHT22;49686;51.880;5.632;2023-05-20T09:28:49;17.40;94.30
63537;DHT22;49686;51.880;5.632;2023-05-20T09:31:16;17.60;93.40
63537;DHT22;49686;51.880;5.632;2023-05-20T09:33:48;17.20;92.80
63537;DHT22;49686;51.880;5.632;2023-05-20T09:36:17;16.80;93.00
63537;DHT22;49686;51.880;5.632;2023-05-20T09:38:45;17.00;93.00
63537;DHT22;49686;51.880;5.632;2023-05-20T09:41:16;17.10;93.20
63537;DHT22;49686;51.880;5.632;2023-05-20T09:43:43;17.20;92.90
63537;DHT22;49686;51.880;5.632;2023-05-20T09:46:15;17.30;93.20
63537;DHT22;49686;51.880;5.632;2023-05-20T09:48:45;17.40;93.70
63537;DHT22;49686;51.880;5.632;2023-05-20T09:51:12;17.70;93.00
63537;DHT22;49686;51.880;5.632;2023-05-20T09:53:41;17.30;92.70
63537;DHT22;49686;51.880;5.632;2023-05-20T09:56:11;17.30;92.90
63537;DHT22;49686;51.880;5.632;2023-05-20T09:58:39;17.30;93.00
63537;DHT22;49686;51.880;5.632;2023-05-20T10:01:10;17.30;93.20
63537;DHT22;49686;51.880;5.632;2023-05-20T10:03:43;17.40;93.40
63537;DHT22;49686;51.880;5.632;2023-05-20T10:06:36;17.50;92.90
63537;DHT22;49686;51.880;5.632;2023-05-20T10:09:26;17.80;93.00
63537;DHT22;49686;51.880;5.632;2023-05-20T10:12:03;18.20;92.10
63537;DHT22;49686;51.880;5.632;2023-05-20T10:14:39;17.80;92.40
63537;DHT22;49686;51.880;5.632;2023-05-20T10:17:13;17.70;92.20
63537;DHT22;49686;51.880;5.632;2023-05-20T10:19:42;17.40;92.90
63537;DHT22;49686;51.880;5.632;2023-05-20T10:22:12;17.50;93.10
63537;DHT22;49686;51.880;5.632;2023-05-20T10:24:41;17.70;92.60
63537;DHT22;49686;51.880;5.632;2023-05-20T10:27:09;18.00;93.10
63537;DHT22;49686;51.880;5.632;2023-05-20T10:29:44;18.10;91.80
63537;DHT22;49686;51.880;5.632;2023-05-20T10:32:22;17.80;92.10
63537;DHT22;49686;51.880;5.632;2023-05-20T10:34:59;17.60;92.90
63537;DHT22;49686;51.880;5.632;2023-05-20T10:37:27;17.80;92.40
63537;DHT22;49686;51.880;5.632;2023-05-20T10:40:10;17.90;92.20
63537;DHT22;49686;51.880;5.632;2023-05-20T10:42:38;18.00;92.00
63537;DHT22;49686;51.880;5.632;2023-05-20T10:45:11;17.90;92.50
63537;DHT22;49686;51.880;5.632;2023-05-20T10:47:52;18.10;92.20
63537;DHT22;49686;51.880;5.632;2023-05-20T10:50:25;18.10;92.80
63537;DHT22;49686;51.880;5.632;2023-05-20T10:52:53;18.10;92.80
63537;DHT22;49686;51.880;5.632;2023-05-20T10:55:21;18.30;93.10
63537;DHT22;49686;51.880;5.632;2023-05-20T10:57:48;18.30;92.40
63537;DHT22;49686;51.880;5.632;2023-05-20T11:00:18;18.30;92.00
63537;DHT22;49686;51.880;5.632;2023-05-20T11:02:49;18.40;91.30
63537;DHT22;49686;51.880;5.632;2023-05-20T11:05:16;18.40;92.40
63537;DHT22;49686;51.880;5.632;2023-05-20T11:07:50;18.60;92.10
63537;DHT22;49686;51.880;5.632;2023-05-20T11:10:27;18.60;91.40
63537;DHT22;49686;51.880;5.632;2023-05-20T11:15:41;18.30;91.80
63537;DHT22;49686;51.880;5.632;2023-05-20T11:18:12;18.40;91.50
63537;DHT22;49686;51.880;5.632;2023-05-20T11:20:42;18.00;91.80
63537;DHT22;49686;51.880;5.632;2023-05-20T11:23:13;18.40;92.00
63537;DHT22;49686;51.880;5.632;2023-05-20T11:25:41;18.40;91.40
63537;DHT22;49686;51.880;5.632;2023-05-20T11:28:11;18.20;91.10
63537;DHT22;49686;51.880;5.632;2023-05-20T11:30:44;18.40;91.20
63537;DHT22;49686;51.880;5.632;2023-05-20T11:33:15;18.60;90.70
63537;DHT22;49686;51.880;5.632;2023-05-20T11:35:44;18.80;91.00
63537;DHT22;49686;51.880;5.632;2023-05-20T11:38:14;18.90;90.80
63537;DHT22;49686;51.880;5.632;2023-05-20T11:40:44;18.60;90.90
63537;DHT22;49686;51.880;5.632;2023-05-20T11:43:17;18.60;91.50
63537;DHT22;49686;51.880;5.632;2023-05-20T11:45:46;18.80;90.90
63537;DHT22;49686;51.880;5.632;2023-05-20T11:48:13;18.80;91.00
63537;DHT22;49686;51.880;5.632;2023-05-20T11:50:46;18.30;91.30
63537;DHT22;49686;51.880;5.632;2023-05-20T11:53:15;18.30;91.00
63537;DHT22;49686;51.880;5.632;2023-05-20T11:55:48;18.90;90.60
63537;DHT22;49686;51.880;5.632;2023-05-20T11:58:15;19.30;89.50
63537;DHT22;49686;51.880;5.632;2023-05-20T12:00:43;19.20;90.20
63537;DHT22;49686;51.880;5.632;2023-05-20T12:03:22;19.10;90.30
63537;DHT22;49686;51.880;5.632;2023-05-20T12:05:50;19.20;90.30
63537;DHT22;49686;51.880;5.632;2023-05-20T12:08:18;19.20;89.50
63537;DHT22;49686;51.880;5.632;2023-05-20T12:10:46;18.90;89.70
63537;DHT22;49686;51.880;5.632;2023-05-20T12:13:13;19.20;90.00
63537;DHT22;49686;51.880;5.632;2023-05-20T12:15:42;19.40;90.50
63537;DHT22;49686;51.880;5.632;2023-05-20T12:18:09;19.70;89.30
63537;DHT22;49686;51.880;5.632;2023-05-20T12:20:36;19.40;89.50
63537;DHT22;49686;51.880;5.632;2023-05-20T12:23:03;19.20;89.50
63537;DHT22;49686;51.880;5.632;2023-05-20T12:25:30;19.40;89.10
63537;DHT22;49686;51.880;5.632;2023-05-20T12:28:00;19.50;90.00
63537;DHT22;49686;51.880;5.632;2023-05-20T12:30:27;19.70;87.40
63537;DHT22;49686;51.880;5.632;2023-05-20T12:32:54;19.30;87.10
63537;DHT22;49686;51.880;5.632;2023-05-20T12:35:24;19.10;88.50
63537;DHT22;49686;51.880;5.632;2023-05-20T12:37:53;19.10;88.50
63537;DHT22;49686;51.880;5.632;2023-05-20T12:40:20;19.00;89.00
63537;DHT22;49686;51.880;5.632;2023-05-20T12:42:47;18.70;89.90
63537;DHT22;49686;51.880;5.632;2023-05-20T12:45:16;18.70;90.20
63537;DHT22;49686;51.880;5.632;2023-05-20T12:47:43;18.80;89.90
63537;DHT22;49686;51.880;5.632;2023-05-20T12:50:10;18.60;89.20
63537;DHT22;49686;51.880;5.632;2023-05-20T12:52:37;18.80;90.00
63537;DHT22;49686;51.880;5.632;2023-05-20T12:55:04;18.80;89.40
63537;DHT22;49686;51.880;5.632;2023-05-20T12:57:31;19.00;90.00
63537;DHT22;49686;51.880;5.632;2023-05-20T12:59:58;19.10;90.00
63537;DHT22;49686;51.880;5.632;2023-05-20T13:02:28;19.10;90.30
63537;DHT22;49686;51.880;5.632;2023-05-20T13:04:55;19.20;89.90
63537;DHT22;49686;51.880;5.632;2023-05-20T13:07:28;19.20;88.10
63537;DHT22;49686;51.880;5.632;2023-05-20T13:09:56;19.20;88.30
63537;DHT22;49686;51.880;5.632;2023-05-20T13:12:22;19.10;87.60
63537;DHT22;49686;51.880;5.632;2023-05-20T13:14:49;19.00;88.20
63537;DHT22;49686;51.880;5.632;2023-05-20T13:17:16;19.00;87.80
63537;DHT22;49686;51.880;5.632;2023-05-20T13:19:46;18.90;88.10
63537;DHT22;49686;51.880;5.632;2023-05-20T13:22:27;19.00;87.00
63537;DHT22;49686;51.880;5.632;2023-05-20T13:24:53;19.00;88.40
63537;DHT22;49686;51.880;5.632;2023-05-20T13:27:23;19.10;88.30
63537;DHT22;49686;51.880;5.632;2023-05-20T13:29:53;19.20;89.30
63537;DHT22;49686;51.880;5.632;2023-05-20T13:32:20;19.60;88.50
63537;DHT22;49686;51.880;5.632;2023-05-20T13:34:48;19.50;87.80
63537;DHT22;49686;51.880;5.632;2023-05-20T13:37:15;19.00;88.60
63537;DHT22;49686;51.880;5.632;2023-05-20T13:39:43;19.20;89.20
63537;DHT22;49686;51.880;5.632;2023-05-20T13:42:10;19.20;88.50
63537;DHT22;49686;51.880;5.632;2023-05-20T13:44:37;19.10;89.10
63537;DHT22;49686;51.880;5.632;2023-05-20T13:47:04;19.30;89.10
63537;DHT22;49686;51.880;5.632;2023-05-20T13:49:37;19.70;89.90
63537;DHT22;49686;51.880;5.632;2023-05-20T13:52:08;20.10;88.90
63537;DHT22;49686;51.880;5.632;2023-05-20T13:54:35;20.10;88.00
63537;DHT22;49686;51.880;5.632;2023-05-20T13:57:03;20.00;87.50
63537;DHT22;49686;51.880;5.632;2023-05-20T13:59:30;19.40;87.30
63537;DHT22;49686;51.880;5.632;2023-05-20T14:01:56;19.50;89.10
63537;DHT22;49686;51.880;5.632;2023-05-20T14:04:24;19.90;88.00
63537;DHT22;49686;51.880;5.632;2023-05-20T14:07:01;19.90;86.30
63537;DHT22;49686;51.880;5.632;2023-05-20T14:09:29;19.70;87.00
63537;DHT22;49686;51.880;5.632;2023-05-20T14:12:00;19.40;87.60
63537;DHT22;49686;51.880;5.632;2023-05-20T14:14:29;19.30;88.70
63537;DHT22;49686;51.880;5.632;2023-05-20T14:16:56;19.40;88.80
63537;DHT22;49686;51.880;5.632;2023-05-20T14:19:25;19.60;88.40
63537;DHT22;49686;51.880;5.632;2023-05-20T14:21:52;19.80;88.00
63537;DHT22;49686;51.880;5.632;2023-05-20T14:24:19;19.70;88.50
63537;DHT22;49686;51.880;5.632;2023-05-20T14:26:50;19.90;88.00
63537;DHT22;49686;51.880;5.632;2023-05-20T14:29:23;19.70;88.00
63537;DHT22;49686;51.880;5.632;2023-05-20T14:31:53;19.70;88.90
63537;DHT22;49686;51.880;5.632;2023-05-20T14:34:20;20.00;88.80
63537;DHT22;49686;51.880;5.632;2023-05-20T14:36:47;19.90;88.00
63537;DHT22;49686;51.880;5.632;2023-05-20T14:39:14;20.00;88.90
63537;DHT22;49686;51.880;5.632;2023-05-20T14:41:43;20.20;88.70
63537;DHT22;49686;51.880;5.632;2023-05-20T14:44:11;20.30;87.20
63537;DHT22;49686;51.880;5.632;2023-05-20T14:46:46;20.30;86.50
63537;DHT22;49686;51.880;5.632;2023-05-20T14:49:16;20.00;87.60
63537;DHT22;49686;51.880;5.632;2023-05-20T14:51:45;19.60;86.70
63537;DHT22;49686;51.880;5.632;2023-05-20T14:54:15;19.70;87.60
63537;DHT22;49686;51.880;5.632;2023-05-20T14:56:42;19.60;86.20
63537;DHT22;49686;51.880;5.632;2023-05-20T14:59:13;19.30;88.10
63537;DHT22;49686;51.880;5.632;2023-05-20T15:01:39;19.10;88.30
63537;DHT22;49686;51.880;5.632;2023-05-20T15:04:06;19.00;88.70
63537;DHT22;49686;51.880;5.632;2023-05-20T15:06:33;19.10;87.90
63537;DHT22;49686;51.880;5.632;2023-05-20T15:09:01;19.30;89.50
63537;DHT22;49686;51.880;5.632;2023-05-20T15:11:28;19.40;87.70
63537;DHT22;49686;51.880;5.632;2023-05-20T15:13:55;19.40;87.90
63537;DHT22;49686;51.880;5.632;2023-05-20T15:16:24;19.20;87.60
63537;DHT22;49686;51.880;5.632;2023-05-20T15:18:53;19.30;88.50
63537;DHT22;49686;51.880;5.632;2023-05-20T15:21:20;19.50;87.30
63537;DHT22;49686;51.880;5.632;2023-05-20T15:23:50;19.50;88.20
63537;DHT22;49686;51.880;5.632;2023-05-20T15:26:21;19.40;87.90
63537;DHT22;49686;51.880;5.632;2023-05-20T15:28:47;19.30;87.50
63537;DHT22;49686;51.880;5.632;2023-05-20T15:31:14;19.10;87.70
63537;DHT22;49686;51.880;5.632;2023-05-20T15:33:44;19.10;87.10
63537;DHT22;49686;51.880;5.632;2023-05-20T15:36:11;19.00;87.80
63537;DHT22;49686;51.880;5.632;2023-05-20T15:38:42;19.00;88.20
63537;DHT22;49686;51.880;5.632;2023-05-20T15:41:10;19.10;88.90
63537;DHT22;49686;51.880;5.632;2023-05-20T15:43:39;19.10;88.50
63537;DHT22;49686;51.880;5.632;2023-05-20T15:46:10;18.80;87.20
63537;DHT22;49686;51.880;5.632;2023-05-20T15:48:44;18.60;87.80